Time;durP1;ratioP1;P1;durP2;ratioP2;P2;SDS_P1;SDS_P2;PMS_P1;PMS_P2;Temp;Humidity;BMP_temperature;BMP_pressure;BME280_temperature;BME280_humidity;BME280_pressure;Samples;Min_cycle;Max_cycle;Signal;HPM_P1;HPM_P2
2022/05/05 00:01:28;;;;;;;23.35;11.80;;;;;;;;;;4998191;28;20155;-64
2022/05/05 00:03:53;;;;;;;22.70;12.15;;;;;;;;;;4997736;28;20092;-63
2022/05/05 00:06:18;;;;;;;26.92;13.25;;;;;;;;;;4995691;28;20131;-64
2022/05/05 00:08:44;;;;;;;26.45;12.43;;;;;;;;;;4997386;28;20119;-67
2022/05/05 00:16:37;;;;;;;29.40;12.25;;;;;;;;;;4996780;28;20089;-69
2022/05/05 00:19:02;;;;;;;25.52;11.88;;;;;;;;;;5000252;28;20833;-68
2022/05/05 00:21:30;;;;;;;22.20;11.70;;;;;;;;;;4997960;28;20037;-67
2022/05/05 00:23:56;;;;;;;21.88;12.55;;;;;;;;;;4998330;28;20189;-67
2022/05/05 00:26:21;;;;;;;21.33;12.05;;;;;;;;;;4997556;28;20048;-67
2022/05/05 00:28:47;;;;;;;27.38;11.90;;;;;;;;;;4996398;28;20037;-68
2022/05/05 00:31:12;;;;;;;22.90;11.63;;;;;;;;;;4997100;28;20037;-68
2022/05/05 00:33:40;;;;;;;26.63;12.00;;;;;;;;;;5013898;28;20314;-67
2022/05/05 00:36:06;;;;;;;23.38;11.82;;;;;;;;;;4997464;28;20075;-68
2022/05/05 00:38:34;;;;;;;24.98;11.55;;;;;;;;;;4997077;28;20029;-67
2022/05/05 00:40:59;;;;;;;24.83;12.13;;;;;;;;;;4983973;28;20172;-69
2022/05/05 00:43:24;;;;;;;27.38;12.70;;;;;;;;;;4997218;28;20140;-69
2022/05/05 00:45:49;;;;;;;27.23;13.25;;;;;;;;;;4997803;28;20107;-63
2022/05/05 00:48:16;;;;;;;24.60;12.90;;;;;;;;;;4994493;28;20908;-68
2022/05/05 00:50:42;;;;;;;26.27;13.10;;;;;;;;;;4992114;28;20037;-64
2022/05/05 00:53:07;;;;;;;24.42;12.20;;;;;;;;;;4996364;28;20079;-67
2022/05/05 00:55:37;;;;;;;28.52;13.38;;;;;;;;;;4997041;28;20068;-67
2022/05/05 00:58:03;;;;;;;25.35;12.88;;;;;;;;;;4996189;28;20761;-67
2022/05/05 01:00:29;;;;;;;26.80;13.45;;;;;;;;;;4995625;28;20041;-64
2022/05/05 01:02:54;;;;;;;28.08;13.88;;;;;;;;;;4997140;28;20088;-68
2022/05/05 01:05:20;;;;;;;25.70;12.63;;;;;;;;;;4996332;28;20034;-64
2022/05/05 01:07:45;;;;;;;21.25;11.95;;;;;;;;;;4996287;28;20139;-70
2022/05/05 01:10:11;;;;;;;26.95;12.23;;;;;;;;;;4997108;28;20037;-67
2022/05/05 01:12:37;;;;;;;28.33;13.23;;;;;;;;;;4997092;28;20572;-67
2022/05/05 01:15:03;;;;;;;25.08;11.75;;;;;;;;;;4994933;28;20072;-67
2022/05/05 01:17:30;;;;;;;20.52;12.05;;;;;;;;;;4995438;28;20136;-67
2022/05/05 01:19:56;;;;;;;24.00;12.27;;;;;;;;;;4996909;28;20037;-67
2022/05/05 01:22:22;;;;;;;19.27;11.73;;;;;;;;;;4997206;28;20142;-64
2022/05/05 01:30:16;;;;;;;21.88;12.02;;;;;;;;;;4996002;28;20036;-66
2022/05/05 01:32:41;;;;;;;24.40;11.95;;;;;;;;;;4994805;28;20144;-65
2022/05/05 01:35:07;;;;;;;23.63;11.95;;;;;;;;;;4995627;28;20072;-67
2022/05/05 01:37:32;;;;;;;24.55;12.25;;;;;;;;;;4996831;28;20607;-67
2022/05/05 01:39:58;;;;;;;23.60;11.73;;;;;;;;;;4998459;28;20878;-65
2022/05/05 01:42:24;;;;;;;22.00;11.68;;;;;;;;;;4999833;28;20059;-64
2022/05/05 01:44:49;;;;;;;21.92;11.13;;;;;;;;;;4999917;28;20128;-65
2022/05/05 01:47:17;;;;;;;21.80;11.43;;;;;;;;;;4999744;28;20047;-68
2022/05/05 01:49:45;;;;;;;22.98;11.75;;;;;;;;;;5001102;28;20822;-64
2022/05/05 01:52:12;;;;;;;23.20;11.00;;;;;;;;;;4998585;28;20040;-63
2022/05/05 01:54:38;;;;;;;19.48;10.82;;;;;;;;;;4999646;28;20075;-64
2022/05/05 01:57:04;;;;;;;25.30;11.90;;;;;;;;;;5003053;28;20041;-67
2022/05/05 01:59:29;;;;;;;23.55;11.25;;;;;;;;;;5000897;28;22314;-67
2022/05/05 02:01:54;;;;;;;23.70;11.95;;;;;;;;;;4995338;28;20052;-67
2022/05/05 02:04:19;;;;;;;23.77;12.38;;;;;;;;;;5002573;28;20049;-67
2022/05/05 02:06:47;;;;;;;22.25;12.35;;;;;;;;;;5002868;28;20076;-68
2022/05/05 02:09:12;;;;;;;24.10;11.80;;;;;;;;;;5002964;28;20126;-68
2022/05/05 02:11:41;;;;;;;25.88;12.95;;;;;;;;;;5001813;28;20148;-67
2022/05/05 02:14:06;;;;;;;25.67;12.48;;;;;;;;;;4986935;28;20911;-67
2022/05/05 02:16:32;;;;;;;21.33;12.23;;;;;;;;;;5002898;28;20033;-65
2022/05/05 02:18:58;;;;;;;25.70;13.27;;;;;;;;;;5003015;28;20036;-64
2022/05/05 02:21:23;;;;;;;25.40;14.52;;;;;;;;;;5002217;28;20033;-69
2022/05/05 02:23:49;;;;;;;28.10;13.93;;;;;;;;;;5002897;28;20063;-69
2022/05/05 02:26:14;;;;;;;30.52;15.32;;;;;;;;;;4999726;28;20040;-69
2022/05/05 02:28:41;;;;;;;27.83;15.90;;;;;;;;;;4984325;28;20515;-69
2022/05/05 02:31:07;;;;;;;32.42;16.83;;;;;;;;;;5004227;28;20041;-70
2022/05/05 02:33:39;;;;;;;33.72;17.05;;;;;;;;;;5000729;28;20087;-69
2022/05/05 02:38:51;;;;;;;43.13;21.23;;;;;;;;;;5002260;28;20048;-68
2022/05/05 02:41:17;;;;;;;38.80;19.95;;;;;;;;;;5011914;28;20791;-64
2022/05/05 02:43:42;;;;;;;32.92;18.73;;;;;;;;;;4997936;28;20129;-70
2022/05/05 02:46:10;;;;;;;31.65;16.73;;;;;;;;;;4996694;28;20033;-68
2022/05/05 02:48:36;;;;;;;31.23;18.23;;;;;;;;;;4998717;28;20045;-68
2022/05/05 02:51:02;;;;;;;32.65;19.25;;;;;;;;;;5000247;28;20600;-69
2022/05/05 02:56:11;;;;;;;32.47;19.48;;;;;;;;;;5000935;28;20037;-68
2022/05/05 02:58:39;;;;;;;36.67;19.27;;;;;;;;;;5002482;28;20037;-69
2022/05/05 03:01:04;;;;;;;39.28;22.38;;;;;;;;;;5001980;28;20037;-69
2022/05/05 03:03:33;;;;;;;36.38;22.63;;;;;;;;;;5005404;28;20065;-69
2022/05/05 03:06:00;;;;;;;39.58;21.80;;;;;;;;;;5000653;28;20033;-69
2022/05/05 03:08:28;;;;;;;38.97;22.80;;;;;;;;;;4999089;28;20044;-65
2022/05/05 03:10:53;;;;;;;37.53;21.25;;;;;;;;;;5006402;28;20041;-64
2022/05/05 03:13:20;;;;;;;37.25;21.38;;;;;;;;;;5001328;28;20068;-64
2022/05/05 03:15:46;;;;;;;37.67;21.85;;;;;;;;;;4999929;28;20055;-65
2022/05/05 03:18:11;;;;;;;38.05;23.02;;;;;;;;;;5002184;28;20064;-65
2022/05/05 03:20:39;;;;;;;37.33;23.50;;;;;;;;;;4999726;28;20129;-69
2022/05/05 03:23:04;;;;;;;40.72;23.33;;;;;;;;;;4999544;28;20044;-70
2022/05/05 03:25:29;;;;;;;41.63;22.38;;;;;;;;;;5001428;28;20122;-65
2022/05/05 03:27:55;;;;;;;46.33;22.13;;;;;;;;;;4999491;28;20048;-66
2022/05/05 03:30:21;;;;;;;42.85;21.45;;;;;;;;;;4999855;28;20041;-64
2022/05/05 03:32:46;;;;;;;34.10;18.73;;;;;;;;;;5000284;28;20064;-69
2022/05/05 03:35:11;;;;;;;33.10;18.83;;;;;;;;;;4998871;28;20049;-70
2022/05/05 03:37:39;;;;;;;30.10;16.92;;;;;;;;;;5000898;28;20823;-69
2022/05/05 03:40:05;;;;;;;38.78;20.67;;;;;;;;;;5001278;28;20041;-69
2022/05/05 03:42:30;;;;;;;34.88;20.80;;;;;;;;;;5000884;28;20144;-70
2022/05/05 03:44:56;;;;;;;32.15;17.40;;;;;;;;;;5000484;28;20117;-65
2022/05/05 03:47:21;;;;;;;28.77;16.63;;;;;;;;;;5000170;28;20059;-65
2022/05/05 03:49:46;;;;;;;30.55;17.17;;;;;;;;;;4999611;28;20147;-64
2022/05/05 03:52:14;;;;;;;30.27;16.05;;;;;;;;;;5000824;28;20041;-65
2022/05/05 03:54:42;;;;;;;29.63;16.60;;;;;;;;;;4999817;28;20105;-64
2022/05/05 03:57:08;;;;;;;26.88;15.05;;;;;;;;;;4997113;28;20116;-65
2022/05/05 03:59:34;;;;;;;23.55;13.75;;;;;;;;;;4981617;28;20228;-68
2022/05/05 04:01:59;;;;;;;27.02;14.00;;;;;;;;;;5001793;28;20056;-70
2022/05/05 04:04:26;;;;;;;22.30;13.30;;;;;;;;;;5001134;28;20037;-65
2022/05/05 04:06:52;;;;;;;26.70;12.73;;;;;;;;;;4985189;28;20128;-67
2022/05/05 04:09:17;;;;;;;21.55;13.05;;;;;;;;;;4999972;28;20880;-65
2022/05/05 04:11:43;;;;;;;25.23;12.82;;;;;;;;;;4995739;28;20049;-64
2022/05/05 04:14:08;;;;;;;28.17;11.90;;;;;;;;;;4997597;28;20076;-64
2022/05/05 04:16:33;;;;;;;21.67;11.82;;;;;;;;;;4982208;28;20076;-69
2022/05/05 04:19:01;;;;;;;21.42;11.68;;;;;;;;;;5014366;28;20403;-65
2022/05/05 04:21:26;;;;;;;21.85;11.55;;;;;;;;;;4996990;28;20064;-64
2022/05/05 04:23:51;;;;;;;25.30;11.93;;;;;;;;;;4997972;28;20063;-64
2022/05/05 04:26:17;;;;;;;25.45;12.90;;;;;;;;;;4999198;28;20034;-68
2022/05/05 04:28:43;;;;;;;28.05;11.55;;;;;;;;;;5008937;28;20827;-65
2022/05/05 04:31:10;;;;;;;24.63;12.18;;;;;;;;;;4998832;28;20029;-65
2022/05/05 04:33:36;;;;;;;25.30;12.73;;;;;;;;;;4998687;28;20045;-69
2022/05/05 04:36:02;;;;;;;23.45;12.63;;;;;;;;;;4997796;28;20107;-65
2022/05/05 04:38:29;;;;;;;25.98;12.05;;;;;;;;;;5000318;28;20037;-70
2022/05/05 04:40:55;;;;;;;29.52;13.50;;;;;;;;;;4998511;28;20052;-68
2022/05/05 04:43:23;;;;;;;29.05;13.05;;;;;;;;;;5000778;28;20049;-68
2022/05/05 04:45:48;;;;;;;30.27;13.52;;;;;;;;;;5000986;28;20037;-69
2022/05/05 04:48:14;;;;;;;30.35;13.77;;;;;;;;;;5000458;28;20126;-68
2022/05/05 04:50:41;;;;;;;24.50;13.38;;;;;;;;;;4999857;28;20120;-68
2022/05/05 04:53:06;;;;;;;35.70;15.82;;;;;;;;;;4997607;28;20060;-67
2022/05/05 04:55:32;;;;;;;34.30;16.27;;;;;;;;;;4984729;28;21740;-70
2022/05/05 04:57:57;;;;;;;37.10;17.45;;;;;;;;;;4999079;28;20044;-69
2022/05/05 05:00:24;;;;;;;41.28;16.92;;;;;;;;;;4999970;28;20040;-69
2022/05/05 05:02:50;;;;;;;41.90;17.75;;;;;;;;;;4999391;28;20713;-69
2022/05/05 05:05:17;;;;;;;34.42;16.98;;;;;;;;;;4999731;28;20160;-69
2022/05/05 05:07:43;;;;;;;36.90;17.73;;;;;;;;;;4999605;28;21050;-69
2022/05/05 05:10:11;;;;;;;37.88;16.95;;;;;;;;;;4997657;28;20059;-70
2022/05/05 05:12:36;;;;;;;40.25;17.15;;;;;;;;;;4999006;28;20033;-70
2022/05/05 05:15:02;;;;;;;38.85;17.42;;;;;;;;;;4999648;28;20041;-69
2022/05/05 05:17:28;;;;;;;34.15;17.27;;;;;;;;;;4999052;28;21081;-70
2022/05/05 05:19:58;;;;;;;33.08;15.77;;;;;;;;;;4998501;28;20045;-70
2022/05/05 05:22:26;;;;;;;29.20;16.13;;;;;;;;;;5000504;28;20056;-69
2022/05/05 05:24:52;;;;;;;37.08;17.40;;;;;;;;;;4996984;28;20137;-69
2022/05/05 05:27:17;;;;;;;38.55;16.70;;;;;;;;;;4999554;28;20496;-69
2022/05/05 05:29:43;;;;;;;39.08;16.88;;;;;;;;;;4997181;28;20037;-68
2022/05/05 05:32:12;;;;;;;29.77;15.93;;;;;;;;;;4997047;28;20139;-69
2022/05/05 05:34:40;;;;;;;32.78;15.77;;;;;;;;;;4998708;28;21211;-70
2022/05/05 05:37:08;;;;;;;35.55;17.77;;;;;;;;;;4996451;28;22368;-65
2022/05/05 05:39:34;;;;;;;34.90;18.05;;;;;;;;;;4998841;28;20068;-70
2022/05/05 05:41:59;;;;;;;37.00;18.38;;;;;;;;;;4997893;28;21574;-70
2022/05/05 05:44:25;;;;;;;38.50;18.88;;;;;;;;;;4996944;28;20142;-69
2022/05/05 05:46:50;;;;;;;35.88;19.17;;;;;;;;;;4998369;28;20144;-69
2022/05/05 05:49:16;;;;;;;36.00;20.15;;;;;;;;;;4999034;28;20037;-66
2022/05/05 05:51:41;;;;;;;44.15;20.48;;;;;;;;;;4998915;28;21729;-66
2022/05/05 05:54:07;;;;;;;50.80;22.30;;;;;;;;;;4992278;28;20850;-69
2022/05/05 05:56:33;;;;;;;58.97;23.83;;;;;;;;;;4991869;28;20036;-71
2022/05/05 05:59:01;;;;;;;63.97;24.95;;;;;;;;;;4992205;28;20025;-70
2022/05/05 06:03:53;;;;;;;40.13;19.25;;;;;;;;;;4996931;28;20041;-69
2022/05/05 06:04:14;;;;;;;40.85;19.85;;;;;;;;;;4995469;28;20112;-69
2022/05/05 06:06:41;;;;;;;42.78;19.45;;;;;;;;;;4995997;28;20041;-69
2022/05/05 06:09:06;;;;;;;35.95;18.65;;;;;;;;;;4995911;28;20037;-69
2022/05/05 06:11:32;;;;;;;34.67;19.00;;;;;;;;;;4996670;28;20140;-65
2022/05/05 06:13:57;;;;;;;37.40;18.98;;;;;;;;;;4992551;28;20055;-65
2022/05/05 06:16:23;;;;;;;35.13;18.38;;;;;;;;;;4993680;28;20103;-69
2022/05/05 06:18:49;;;;;;;38.83;19.63;;;;;;;;;;4994543;28;20044;-66
2022/05/05 06:21:14;;;;;;;33.63;20.55;;;;;;;;;;4994961;28;20037;-67
2022/05/05 06:23:41;;;;;;;38.63;21.98;;;;;;;;;;4996998;28;20305;-66
2022/05/05 06:26:06;;;;;;;38.83;21.83;;;;;;;;;;5008701;28;20037;-67
2022/05/05 06:28:33;;;;;;;36.20;18.73;;;;;;;;;;5002427;28;20713;-65
2022/05/05 06:30:59;;;;;;;35.33;18.48;;;;;;;;;;4996146;28;20029;-66
2022/05/05 06:33:24;;;;;;;35.17;18.17;;;;;;;;;;5001328;28;20141;-65
2022/05/05 06:35:50;;;;;;;29.25;17.08;;;;;;;;;;4997958;28;20122;-66
2022/05/05 06:38:18;;;;;;;31.50;16.98;;;;;;;;;;4983873;28;20073;-66
2022/05/05 06:40:44;;;;;;;33.83;16.75;;;;;;;;;;5002237;28;20053;-65
2022/05/05 06:43:09;;;;;;;24.08;15.40;;;;;;;;;;5001865;28;20047;-65
2022/05/05 06:45:34;;;;;;;25.55;14.60;;;;;;;;;;4988433;28;20102;-65
2022/05/05 06:48:01;;;;;;;26.30;14.80;;;;;;;;;;5000940;28;20033;-66
2022/05/05 06:50:27;;;;;;;35.03;17.45;;;;;;;;;;5001198;28;20144;-65
2022/05/05 06:52:52;;;;;;;35.58;16.98;;;;;;;;;;5001309;28;20049;-66
2022/05/05 06:55:18;;;;;;;45.38;22.75;;;;;;;;;;5000707;28;20079;-65
2022/05/05 06:57:44;;;;;;;48.85;23.83;;;;;;;;;;5003906;28;20095;-66
2022/05/05 07:00:10;;;;;;;47.55;26.65;;;;;;;;;;4999879;28;20033;-65
2022/05/05 07:02:36;;;;;;;54.22;28.42;;;;;;;;;;5003309;28;20033;-66
2022/05/05 07:07:45;;;;;;;46.08;24.85;;;;;;;;;;5003082;28;20031;-66
2022/05/05 07:12:55;;;;;;;47.53;25.55;;;;;;;;;;5004171;28;20101;-66
2022/05/05 07:15:22;;;;;;;47.97;25.65;;;;;;;;;;5002468;28;20148;-67
2022/05/05 07:17:48;;;;;;;49.92;26.60;;;;;;;;;;5003543;28;20033;-67
2022/05/05 07:20:13;;;;;;;44.60;25.45;;;;;;;;;;4997332;28;20103;-66
2022/05/05 07:22:42;;;;;;;38.53;22.38;;;;;;;;;;4999839;28;20029;-67
2022/05/05 07:25:07;;;;;;;35.67;20.67;;;;;;;;;;5004152;28;21032;-67
2022/05/05 07:27:35;;;;;;;42.25;24.90;;;;;;;;;;5000632;28;20025;-65
2022/05/05 07:30:01;;;;;;;43.00;24.23;;;;;;;;;;5000640;28;20071;-65
2022/05/05 07:32:26;;;;;;;37.83;24.95;;;;;;;;;;5000412;28;20038;-66
2022/05/05 07:34:52;;;;;;;40.45;25.15;;;;;;;;;;5002071;28;20077;-66
2022/05/05 07:37:17;;;;;;;41.67;26.05;;;;;;;;;;5000843;28;20045;-65
2022/05/05 07:39:43;;;;;;;40.67;25.10;;;;;;;;;;5002713;28;20051;-65
2022/05/05 07:42:09;;;;;;;33.72;22.20;;;;;;;;;;5000718;28;20065;-65
2022/05/05 07:44:34;;;;;;;36.65;24.13;;;;;;;;;;4998991;28;20118;-66
2022/05/05 07:46:59;;;;;;;40.08;25.85;;;;;;;;;;4999921;28;20075;-66
2022/05/05 07:49:25;;;;;;;40.78;25.08;;;;;;;;;;5002340;28;20128;-66
2022/05/05 07:51:51;;;;;;;37.60;24.65;;;;;;;;;;5002572;28;20848;-67
2022/05/05 07:54:37;;;;;;;37.50;23.58;;;;;;;;;;5002089;28;21326;-67
2022/05/05 07:57:06;;;;;;;39.65;24.00;;;;;;;;;;5001799;28;20076;-65
2022/05/05 07:59:31;;;;;;;41.42;24.35;;;;;;;;;;5001918;28;20124;-66
2022/05/05 08:01:57;;;;;;;42.78;25.15;;;;;;;;;;4998296;28;20041;-66
2022/05/05 08:04:22;;;;;;;42.28;26.23;;;;;;;;;;4999616;28;20629;-71
2022/05/05 08:06:47;;;;;;;45.67;26.27;;;;;;;;;;5001862;28;20096;-65
2022/05/05 08:09:13;;;;;;;44.17;28.23;;;;;;;;;;5001532;28;20045;-66
2022/05/05 08:11:38;;;;;;;44.33;28.17;;;;;;;;;;5001442;28;20041;-65
2022/05/05 08:14:04;;;;;;;46.75;28.13;;;;;;;;;;5001893;28;20562;-66
2022/05/05 08:16:30;;;;;;;45.67;28.40;;;;;;;;;;4993550;28;20084;-66
2022/05/05 08:18:55;;;;;;;49.45;28.88;;;;;;;;;;5000523;28;20135;-66
2022/05/05 08:21:20;;;;;;;49.67;29.17;;;;;;;;;;4997569;28;22322;-66
2022/05/05 08:23:46;;;;;;;50.92;30.58;;;;;;;;;;5001004;28;20108;-65
2022/05/05 08:28:55;;;;;;;49.53;30.33;;;;;;;;;;5001205;28;20033;-66
2022/05/05 08:31:21;;;;;;;51.20;30.50;;;;;;;;;;5000120;28;20033;-66
2022/05/05 08:33:47;;;;;;;49.17;30.60;;;;;;;;;;5001111;28;20037;-65
2022/05/05 08:36:13;;;;;;;45.03;28.23;;;;;;;;;;5000323;28;20059;-64
2022/05/05 08:38:38;;;;;;;44.70;27.75;;;;;;;;;;4998134;28;20115;-69
2022/05/05 08:41:04;;;;;;;43.35;28.20;;;;;;;;;;5001958;28;20055;-69
2022/05/05 08:43:30;;;;;;;46.45;27.83;;;;;;;;;;5000970;28;20334;-70
2022/05/05 08:45:57;;;;;;;44.15;29.05;;;;;;;;;;5000047;28;20102;-70
2022/05/05 08:48:22;;;;;;;38.53;26.42;;;;;;;;;;4995086;28;20041;-70
2022/05/05 08:51:00;;;;;;;43.45;29.80;;;;;;;;;;5005284;28;20625;-71
2022/05/05 08:53:30;;;;;;;44.90;29.02;;;;;;;;;;4999250;28;20030;-69
2022/05/05 08:55:56;;;;;;;43.95;28.75;;;;;;;;;;4998578;28;20030;-68
2022/05/05 08:58:24;;;;;;;41.20;27.88;;;;;;;;;;5001987;28;20044;-65
2022/05/05 09:00:52;;;;;;;43.33;28.40;;;;;;;;;;4999062;28;20032;-66
2022/05/05 09:03:21;;;;;;;47.72;29.65;;;;;;;;;;4999032;28;20057;-66
2022/05/05 09:05:51;;;;;;;48.83;30.33;;;;;;;;;;5002718;28;20052;-66
2022/05/05 09:08:23;;;;;;;53.35;31.60;;;;;;;;;;4999407;28;20033;-65
2022/05/05 09:10:50;;;;;;;50.97;32.08;;;;;;;;;;4999639;28;20804;-65
2022/05/05 09:13:21;;;;;;;58.47;35.45;;;;;;;;;;4997819;28;20026;-65
2022/05/05 09:15:46;;;;;;;61.50;37.78;;;;;;;;;;5000480;28;20928;-63
2022/05/05 09:18:12;;;;;;;71.20;36.80;;;;;;;;;;4999928;28;20128;-67
2022/05/05 09:20:38;;;;;;;56.08;36.90;;;;;;;;;;5000707;28;20166;-65
2022/05/05 09:23:04;;;;;;;55.25;34.78;;;;;;;;;;5000227;28;20029;-72
2022/05/05 09:25:42;;;;;;;58.90;37.72;;;;;;;;;;4999718;28;20584;-71
2022/05/05 09:28:20;;;;;;;58.65;36.72;;;;;;;;;;5000991;28;20037;-71
2022/05/05 09:30:47;;;;;;;62.65;38.38;;;;;;;;;;4999379;28;20030;-69
2022/05/05 09:33:13;;;;;;;54.97;35.97;;;;;;;;;;5001113;28;20029;-72
2022/05/05 09:35:39;;;;;;;59.97;36.65;;;;;;;;;;4999194;28;20044;-70
2022/05/05 09:38:04;;;;;;;55.38;35.90;;;;;;;;;;4999032;28;20788;-72
2022/05/05 09:40:29;;;;;;;60.35;37.75;;;;;;;;;;4998510;28;20033;-72
2022/05/05 09:42:55;;;;;;;56.15;36.92;;;;;;;;;;5000784;28;20041;-73
2022/05/05 09:45:22;;;;;;;55.35;36.55;;;;;;;;;;4989971;28;20040;-71
2022/05/05 09:47:47;;;;;;;60.45;36.28;;;;;;;;;;4997391;28;20565;-68
2022/05/05 09:50:15;;;;;;;62.25;36.90;;;;;;;;;;4998754;28;20036;-70
2022/05/05 09:58:15;;;;;;;64.70;38.78;;;;;;;;;;4999365;28;20408;-70
2022/05/05 10:00:47;;;;;;;65.47;40.15;;;;;;;;;;4999978;28;21756;-69
2022/05/05 10:06:03;;;;;;;64.60;38.35;;;;;;;;;;5003728;28;20121;-69
2022/05/05 10:08:35;;;;;;;63.15;38.65;;;;;;;;;;4997120;28;20044;-71
2022/05/05 10:11:03;;;;;;;61.83;38.13;;;;;;;;;;5000001;28;20038;-71
2022/05/05 10:13:30;;;;;;;60.40;37.83;;;;;;;;;;4995298;28;20184;-70
2022/05/05 10:16:01;;;;;;;58.72;37.05;;;;;;;;;;5000226;28;20756;-70
2022/05/05 10:18:30;;;;;;;60.20;36.72;;;;;;;;;;4999868;28;20056;-65
2022/05/05 10:20:57;;;;;;;59.83;35.70;;;;;;;;;;4997755;28;20083;-72
2022/05/05 10:23:30;;;;;;;61.53;38.05;;;;;;;;;;4999920;28;20061;-72
2022/05/05 10:25:58;;;;;;;60.17;35.72;;;;;;;;;;5004952;28;21052;-71
2022/05/05 10:28:36;;;;;;;59.80;36.47;;;;;;;;;;5003495;28;20056;-71
2022/05/05 10:31:01;;;;;;;53.95;34.80;;;;;;;;;;5002502;28;20039;-69
2022/05/05 10:33:46;;;;;;;60.05;36.75;;;;;;;;;;5003141;28;21200;-69
2022/05/05 10:36:21;;;;;;;58.25;36.70;;;;;;;;;;5001334;28;20037;-70
2022/05/05 10:38:49;;;;;;;58.17;35.97;;;;;;;;;;5003456;28;20156;-70
2022/05/05 10:41:30;;;;;;;57.42;37.90;;;;;;;;;;5002408;28;20069;-65
2022/05/05 10:44:14;;;;;;;54.92;35.65;;;;;;;;;;5004118;28;20599;-68
2022/05/05 10:46:55;;;;;;;60.67;36.63;;;;;;;;;;5004952;28;20152;-69
2022/05/05 10:49:39;;;;;;;62.38;38.03;;;;;;;;;;5002313;28;20348;-64
2022/05/05 10:52:07;;;;;;;61.72;37.15;;;;;;;;;;5002381;28;20044;-66
2022/05/05 10:54:36;;;;;;;56.50;36.35;;;;;;;;;;5000080;28;20139;-66
2022/05/05 10:57:20;;;;;;;60.38;38.20;;;;;;;;;;5004841;28;20110;-66
2022/05/05 11:00:05;;;;;;;52.92;36.05;;;;;;;;;;5002076;28;20040;-71
2022/05/05 11:02:31;;;;;;;55.92;37.90;;;;;;;;;;5003177;28;20037;-64
2022/05/05 11:05:15;;;;;;;53.20;36.80;;;;;;;;;;4998645;28;20037;-65
2022/05/05 11:07:42;;;;;;;55.58;37.72;;;;;;;;;;5017103;28;20136;-67
2022/05/05 11:10:28;;;;;;;53.78;36.40;;;;;;;;;;4998541;28;20068;-68
2022/05/05 11:12:56;;;;;;;54.38;36.88;;;;;;;;;;5001913;28;20025;-66
2022/05/05 11:23:57;;;;;;;62.38;40.58;;;;;;;;;;4998538;28;20160;-67
2022/05/05 11:26:24;;;;;;;57.45;39.80;;;;;;;;;;4995768;28;20085;-65
2022/05/05 11:28:50;;;;;;;58.28;38.92;;;;;;;;;;4998930;28;20048;-66
2022/05/05 11:31:18;;;;;;;63.00;41.35;;;;;;;;;;4997353;28;20140;-68
2022/05/05 11:33:47;;;;;;;61.75;42.08;;;;;;;;;;5000203;28;20065;-68
2022/05/05 11:36:13;;;;;;;64.88;43.15;;;;;;;;;;5001189;28;21065;-69
2022/05/05 11:38:40;;;;;;;64.00;42.67;;;;;;;;;;5000495;28;20122;-64
2022/05/05 11:41:07;;;;;;;62.42;42.15;;;;;;;;;;5000513;28;20064;-64
2022/05/05 11:46:17;;;;;;;56.60;38.38;;;;;;;;;;5001665;28;20090;-65
2022/05/05 11:48:43;;;;;;;54.80;39.28;;;;;;;;;;4996969;28;20035;-66
2022/05/05 11:51:09;;;;;;;58.63;39.85;;;;;;;;;;5001530;28;20039;-67
2022/05/05 11:53:35;;;;;;;65.60;42.17;;;;;;;;;;5000782;28;20037;-64
2022/05/05 11:56:01;;;;;;;62.65;41.83;;;;;;;;;;5006640;28;20040;-64
2022/05/05 12:04:02;;;;;;;67.38;44.08;;;;;;;;;;5000860;28;20843;-67
2022/05/05 12:06:28;;;;;;;65.93;44.05;;;;;;;;;;5001692;28;20151;-68
2022/05/05 12:08:55;;;;;;;58.90;41.38;;;;;;;;;;5000258;28;20037;-68
2022/05/05 12:11:22;;;;;;;61.50;41.17;;;;;;;;;;4999323;28;20029;-64
2022/05/05 12:13:51;;;;;;;60.05;41.05;;;;;;;;;;5000783;28;20056;-64
2022/05/05 12:16:19;;;;;;;58.05;39.58;;;;;;;;;;4985804;28;20151;-64
2022/05/05 12:18:53;;;;;;;62.05;41.42;;;;;;;;;;4998099;28;20705;-64
2022/05/05 12:21:22;;;;;;;58.88;38.85;;;;;;;;;;4999765;28;20026;-64
2022/05/05 12:24:00;;;;;;;63.10;41.65;;;;;;;;;;5013465;28;20129;-65
2022/05/05 12:26:28;;;;;;;59.13;41.17;;;;;;;;;;5000490;28;20047;-64
2022/05/05 12:28:53;;;;;;;58.50;38.38;;;;;;;;;;5000149;28;20033;-64
2022/05/05 12:31:23;;;;;;;60.17;39.65;;;;;;;;;;5001240;28;20111;-67
2022/05/05 12:33:49;;;;;;;57.40;38.90;;;;;;;;;;4999679;28;20037;-65
2022/05/05 12:36:15;;;;;;;53.00;37.13;;;;;;;;;;4998197;28;20209;-64
2022/05/05 12:38:41;;;;;;;53.30;36.60;;;;;;;;;;4998187;28;20033;-65
2022/05/05 12:41:07;;;;;;;61.67;39.47;;;;;;;;;;4999133;28;20037;-64
2022/05/05 12:43:33;;;;;;;59.58;37.15;;;;;;;;;;4997244;28;20045;-64
2022/05/05 12:46:02;;;;;;;60.90;37.55;;;;;;;;;;4995735;28;20184;-66
2022/05/05 12:48:27;;;;;;;58.30;38.13;;;;;;;;;;4995026;28;20040;-65
2022/05/05 12:50:53;;;;;;;58.00;38.40;;;;;;;;;;4994249;28;20704;-64
2022/05/05 13:01:46;;;;;;;53.42;33.78;;;;;;;;;;4996571;28;20037;-75
2022/05/05 13:04:14;;;;;;;55.15;34.13;;;;;;;;;;5001667;28;20045;-79
2022/05/05 13:06:41;;;;;;;49.80;34.08;;;;;;;;;;4997090;28;21172;-70
2022/05/05 13:09:08;;;;;;;53.15;33.20;;;;;;;;;;4998097;28;20034;-69
2022/05/05 13:11:34;;;;;;;49.42;32.75;;;;;;;;;;4996730;28;21857;-69
2022/05/05 13:13:59;;;;;;;50.45;32.58;;;;;;;;;;5003616;28;20130;-69
2022/05/05 13:16:27;;;;;;;47.58;32.03;;;;;;;;;;4988958;28;20192;-69
2022/05/05 13:18:52;;;;;;;50.97;32.78;;;;;;;;;;4993924;28;20036;-67
2022/05/05 13:21:17;;;;;;;48.03;31.67;;;;;;;;;;4997567;28;20628;-69
2022/05/05 13:23:43;;;;;;;47.58;33.00;;;;;;;;;;4995907;28;20033;-66
2022/05/05 13:26:10;;;;;;;50.70;32.97;;;;;;;;;;4996101;28;20033;-69
2022/05/05 13:28:36;;;;;;;47.00;31.38;;;;;;;;;;4993286;28;20576;-70
2022/05/05 13:31:01;;;;;;;47.88;31.58;;;;;;;;;;4996144;28;20138;-71
2022/05/05 13:33:31;;;;;;;55.42;35.90;;;;;;;;;;4994762;28;20868;-70
2022/05/05 13:35:57;;;;;;;60.95;37.55;;;;;;;;;;5000854;28;20088;-70
2022/05/05 13:38:26;;;;;;;57.00;37.83;;;;;;;;;;4997917;28;20831;-70
2022/05/05 13:40:51;;;;;;;52.28;34.97;;;;;;;;;;4996090;28;20049;-70
2022/05/05 13:43:17;;;;;;;44.13;29.38;;;;;;;;;;5001269;28;20025;-70
2022/05/05 13:45:43;;;;;;;41.50;28.20;;;;;;;;;;4998895;28;20057;-69
2022/05/05 13:48:08;;;;;;;42.08;28.27;;;;;;;;;;5000331;28;20056;-70
2022/05/05 13:50:33;;;;;;;38.05;26.13;;;;;;;;;;4997124;28;20132;-69
2022/05/05 13:52:59;;;;;;;40.97;27.20;;;;;;;;;;5004144;28;20035;-66
2022/05/05 13:55:26;;;;;;;56.35;35.72;;;;;;;;;;4999180;28;20045;-66
2022/05/05 13:57:51;;;;;;;45.00;31.00;;;;;;;;;;4999514;28;20041;-67
2022/05/05 14:00:16;;;;;;;48.58;30.77;;;;;;;;;;4998630;28;20266;-71
2022/05/05 14:02:42;;;;;;;47.88;31.45;;;;;;;;;;4981168;28;20067;-71
2022/05/05 14:05:07;;;;;;;45.40;29.83;;;;;;;;;;4996966;28;20126;-69
2022/05/05 14:13:05;;;;;;;50.42;31.08;;;;;;;;;;4989483;28;20040;-71
2022/05/05 14:15:34;;;;;;;45.45;30.05;;;;;;;;;;4999718;28;20573;-72
2022/05/05 14:18:01;;;;;;;47.45;30.65;;;;;;;;;;4999097;28;20054;-70
2022/05/05 14:20:28;;;;;;;47.65;30.95;;;;;;;;;;5004614;28;20048;-67
2022/05/05 14:22:54;;;;;;;47.03;31.48;;;;;;;;;;5002480;28;20140;-71
2022/05/05 14:25:20;;;;;;;45.80;30.63;;;;;;;;;;5003880;28;20033;-70
2022/05/05 14:27:45;;;;;;;43.30;29.27;;;;;;;;;;5003399;28;21023;-73
2022/05/05 14:30:10;;;;;;;45.67;29.90;;;;;;;;;;5003733;28;20115;-71
2022/05/05 14:32:36;;;;;;;47.85;30.88;;;;;;;;;;5003314;28;21059;-71
2022/05/05 14:35:02;;;;;;;45.20;30.23;;;;;;;;;;5002257;28;20132;-71
2022/05/05 14:37:28;;;;;;;52.17;33.40;;;;;;;;;;5004375;28;20041;-72
2022/05/05 14:39:53;;;;;;;50.78;33.72;;;;;;;;;;4991084;28;20852;-72
2022/05/05 14:42:18;;;;;;;52.08;33.00;;;;;;;;;;5002507;28;22433;-67
2022/05/05 14:44:46;;;;;;;49.35;34.03;;;;;;;;;;5003124;28;20067;-71
2022/05/05 14:47:11;;;;;;;48.63;31.27;;;;;;;;;;5001656;28;20041;-66
2022/05/05 14:49:39;;;;;;;48.78;31.92;;;;;;;;;;5000024;28;20033;-71
2022/05/05 14:52:05;;;;;;;45.63;29.52;;;;;;;;;;5003440;28;20044;-71
2022/05/05 14:54:30;;;;;;;41.33;28.02;;;;;;;;;;5003322;28;20087;-74
2022/05/05 14:56:56;;;;;;;42.42;27.75;;;;;;;;;;5000949;28;20037;-71
2022/05/05 14:59:21;;;;;;;39.78;27.23;;;;;;;;;;5002842;28;20029;-70
2022/05/05 15:01:49;;;;;;;39.88;26.98;;;;;;;;;;5000550;28;20739;-72
2022/05/05 15:04:21;;;;;;;39.65;27.15;;;;;;;;;;5000685;28;20496;-71
2022/05/05 15:06:49;;;;;;;43.75;28.15;;;;;;;;;;5003978;28;20046;-72
2022/05/05 15:09:15;;;;;;;41.15;28.63;;;;;;;;;;5002801;28;20128;-74
2022/05/05 15:11:43;;;;;;;39.60;27.63;;;;;;;;;;5003857;28;20758;-71
2022/05/05 15:14:10;;;;;;;38.95;26.95;;;;;;;;;;5000265;28;21653;-71
2022/05/05 15:16:39;;;;;;;36.88;26.75;;;;;;;;;;5002122;28;20044;-73
2022/05/05 15:19:04;;;;;;;40.25;27.08;;;;;;;;;;5001354;28;20134;-70